createdAt,value
2023-02-18T00:01:59.814Z,49.90
2023-02-18T00:04:28.194Z,51.30
2023-02-18T00:06:56.977Z,53.60
2023-02-18T00:09:26.585Z,51.00
2023-02-18T00:11:55.168Z,50.60
2023-02-18T00:14:24.159Z,50.40
2023-02-18T00:16:53.220Z,48.20
2023-02-18T00:19:22.192Z,52.50
2023-02-18T00:21:50.521Z,52.30
2023-02-18T00:24:19.006Z,55.10
2023-02-18T00:26:50.867Z,48.50
2023-02-18T00:29:20.095Z,48.20
2023-02-18T00:31:52.244Z,47.00
2023-02-18T00:34:21.010Z,46.00
2023-02-18T00:36:49.796Z,43.60
2023-02-18T00:39:18.175Z,44.10
2023-02-18T00:41:46.968Z,51.30
2023-02-18T00:44:17.304Z,46.40
2023-02-18T00:46:48.533Z,44.60
2023-02-18T00:49:17.336Z,46.00
2023-02-18T00:51:45.596Z,48.30
2023-02-18T00:54:14.000Z,42.60
2023-02-18T00:56:42.669Z,45.50
2023-02-18T00:59:11.547Z,47.60
2023-02-18T01:01:42.005Z,51.50
2023-02-18T01:04:16.499Z,50.30
2023-02-18T01:06:45.199Z,50.10
2023-02-18T01:09:13.875Z,44.20
2023-02-18T01:11:43.279Z,44.60
2023-02-18T01:14:12.165Z,42.90
2023-02-18T01:16:43.516Z,45.70
2023-02-18T01:19:12.102Z,43.50
2023-02-18T01:21:40.608Z,50.70
2023-02-18T01:24:09.895Z,40.40
2023-02-18T01:26:38.561Z,43.00
2023-02-18T01:29:07.961Z,35.40
2023-02-18T01:31:36.734Z,37.90
2023-02-18T01:34:07.995Z,37.90
2023-02-18T01:36:36.592Z,36.30
2023-02-18T01:39:09.769Z,34.70
2023-02-18T01:41:38.246Z,34.10
2023-02-18T01:44:26.592Z,40.80
2023-02-18T01:46:56.109Z,37.10
2023-02-18T01:49:34.408Z,38.10
2023-02-18T01:52:09.049Z,40.30
2023-02-18T01:54:40.102Z,43.80
2023-02-18T01:57:13.263Z,43.10
2023-02-18T01:59:46.041Z,47.10
2023-02-18T02:02:18.103Z,41.20
2023-02-18T02:04:46.788Z,42.40
2023-02-18T02:07:15.724Z,42.20
2023-02-18T02:09:44.281Z,49.30
2023-02-18T02:12:47.863Z,45.00
2023-02-18T02:15:37.439Z,42.80
2023-02-18T02:18:36.438Z,46.70
2023-02-18T02:21:39.435Z,41.50
2023-02-18T02:24:23.882Z,44.10
2023-02-18T02:27:06.630Z,45.70
2023-02-18T02:29:55.078Z,46.30
2023-02-18T02:32:29.061Z,41.40
2023-02-18T02:35:01.526Z,49.70
2023-02-18T02:40:35.759Z,47.30
2023-02-18T02:43:19.313Z,51.80
2023-02-18T02:46:04.527Z,49.10
2023-02-18T02:48:48.148Z,44.10
2023-02-18T02:51:56.930Z,48.30
2023-02-18T02:54:26.924Z,51.20
2023-02-18T02:57:29.221Z,46.70
2023-02-18T03:00:12.345Z,49.60
2023-02-18T03:02:49.773Z,46.70
2023-02-18T03:05:52.931Z,47.80
2023-02-18T03:08:46.206Z,45.60
2023-02-18T03:11:15.491Z,42.10
2023-02-18T03:13:56.784Z,39.30
2023-02-18T03:16:28.479Z,41.40
2023-02-18T03:19:10.959Z,40.00
2023-02-18T03:21:54.096Z,47.60
2023-02-18T03:24:24.792Z,41.10
2023-02-18T03:26:59.849Z,41.40
2023-02-18T03:29:28.320Z,41.00
2023-02-18T03:32:02.744Z,41.80
2023-02-18T03:34:32.966Z,39.30
2023-02-18T03:37:05.733Z,39.60
2023-02-18T03:39:35.030Z,39.20
2023-02-18T03:42:05.869Z,39.60
2023-02-18T03:44:34.753Z,39.90
2023-02-18T03:47:03.254Z,39.70
2023-02-18T03:49:31.919Z,35.80
2023-02-18T03:52:00.911Z,38.20
2023-02-18T03:54:30.209Z,37.40
2023-02-18T03:56:58.790Z,37.70
2023-02-18T03:59:27.070Z,37.00
2023-02-18T04:01:55.655Z,38.70
2023-02-18T04:04:24.142Z,37.00
2023-02-18T04:06:54.042Z,38.20
2023-02-18T04:09:23.555Z,37.60
2023-02-18T04:11:52.236Z,36.90
2023-02-18T04:14:20.609Z,38.10
2023-02-18T04:16:51.900Z,38.50
2023-02-18T04:19:20.845Z,40.90
2023-02-18T04:21:50.045Z,38.30
2023-02-18T04:24:18.523Z,38.30
2023-02-18T04:26:47.081Z,37.90
2023-02-18T04:29:15.382Z,39.60
2023-02-18T04:31:44.548Z,39.90
2023-02-18T04:34:13.056Z,36.00
2023-02-18T04:36:41.541Z,39.30
2023-02-18T04:39:10.337Z,37.70
2023-02-18T04:41:39.011Z,38.00
2023-02-18T04:44:10.153Z,39.00
2023-02-18T04:46:38.954Z,39.90
2023-02-18T04:49:08.241Z,37.90
2023-02-18T04:51:37.953Z,40.40
2023-02-18T04:56:37.890Z,42.80
2023-02-18T04:59:06.367Z,40.40
2023-02-18T05:01:35.005Z,36.90
2023-02-18T05:04:03.688Z,39.50
2023-02-18T05:06:32.731Z,36.70
2023-02-18T05:09:01.316Z,39.10
2023-02-18T05:11:29.999Z,39.70
2023-02-18T05:13:58.482Z,39.60
2023-02-18T05:16:27.081Z,38.20
2023-02-18T05:18:55.748Z,41.80
2023-02-18T05:21:24.235Z,39.40
2023-02-18T05:23:52.822Z,40.60
2023-02-18T05:26:21.599Z,39.70
2023-02-18T05:28:50.395Z,39.80
2023-02-18T05:31:19.026Z,42.00
2023-02-18T05:33:48.197Z,41.60
2023-02-18T05:36:17.260Z,39.80
2023-02-18T05:38:47.278Z,41.00
2023-02-18T05:41:15.552Z,42.00
2023-02-18T05:44:02.874Z,38.60
2023-02-18T05:46:31.674Z,38.30
2023-02-18T05:49:00.658Z,39.20
2023-02-18T05:51:29.132Z,38.20
2023-02-18T05:57:18.522Z,36.60
2023-02-18T05:59:46.928Z,41.30
2023-02-18T06:02:15.280Z,39.40
2023-02-18T06:04:43.556Z,38.20
2023-02-18T06:07:12.249Z,37.60
2023-02-18T06:09:41.368Z,35.40
2023-02-18T06:12:11.584Z,38.60
2023-02-18T06:14:42.490Z,37.30
2023-02-18T06:17:16.811Z,38.20
2023-02-18T06:19:46.318Z,35.10
2023-02-18T06:22:15.105Z,34.90
2023-02-18T06:24:43.583Z,34.40
2023-02-18T06:27:12.274Z,33.40
2023-02-18T06:29:40.646Z,34.30
2023-02-18T06:32:09.458Z,35.00
2023-02-18T06:34:38.016Z,34.20
2023-02-18T06:37:06.700Z,35.00
2023-02-18T06:39:39.488Z,31.80
2023-02-18T06:42:08.061Z,34.20
2023-02-18T06:44:38.136Z,35.80
2023-02-18T06:47:07.493Z,32.80
2023-02-18T06:49:36.780Z,30.20
2023-02-18T06:52:05.784Z,31.60
2023-02-18T06:54:34.673Z,29.30
2023-02-18T06:57:03.141Z,29.30
2023-02-18T06:59:32.351Z,30.90
2023-02-18T07:02:02.048Z,28.80
2023-02-18T07:04:30.631Z,32.00
2023-02-18T07:06:59.217Z,28.90
2023-02-18T07:09:28.232Z,26.80
2023-02-18T07:11:56.997Z,30.50
2023-02-18T07:14:26.729Z,95.20
2023-02-18T07:16:55.190Z,39.40
2023-02-18T07:19:27.351Z,39.90
2023-02-18T07:21:57.957Z,29.30
2023-02-18T07:24:26.562Z,28.30
2023-02-18T07:26:55.044Z,26.20
2023-02-18T07:29:23.318Z,25.60
2023-02-18T07:53:38.157Z,27.60
2023-02-18T07:56:06.107Z,25.70
2023-02-18T07:58:35.311Z,26.80
2023-02-18T08:01:09.707Z,25.10
2023-02-18T08:03:36.516Z,23.10
2023-02-18T08:06:04.501Z,24.00
2023-02-18T08:08:32.170Z,22.60
2023-02-18T08:14:23.203Z,27.80
2023-02-18T08:16:55.286Z,21.50
2023-02-18T08:19:24.052Z,22.70
2023-02-18T08:21:52.632Z,22.00
2023-02-18T08:24:21.011Z,21.00
2023-02-18T08:27:00.380Z,20.20
2023-02-18T08:29:30.066Z,19.40
2023-02-18T08:31:59.973Z,22.50
2023-02-18T08:34:28.449Z,21.00
2023-02-18T08:36:58.163Z,21.30
2023-02-18T08:39:27.150Z,20.50
2023-02-18T08:41:57.199Z,20.40
2023-02-18T08:44:25.442Z,22.60
2023-02-18T08:46:54.286Z,22.10
2023-02-18T08:49:24.462Z,19.60
2023-02-18T08:51:52.730Z,18.30
2023-02-18T08:54:21.516Z,18.40
2023-02-18T08:56:49.787Z,20.90
2023-02-18T08:59:18.485Z,18.90
2023-02-18T09:01:47.266Z,19.00
2023-02-18T09:04:16.210Z,20.40
2023-02-18T09:06:46.991Z,18.50
2023-02-18T09:09:15.379Z,20.20
2023-02-18T09:11:44.907Z,18.10
2023-02-18T09:14:13.350Z,18.00
2023-02-18T09:16:42.753Z,18.90
2023-02-18T09:19:12.053Z,17.60
2023-02-18T09:21:40.534Z,18.30
2023-02-18T09:24:10.862Z,18.80
2023-02-18T09:26:39.946Z,18.10
2023-02-18T09:29:10.888Z,18.20
2023-02-18T09:31:41.222Z,18.60
2023-02-18T09:34:09.893Z,18.60
2023-02-18T09:36:39.913Z,18.50
2023-02-18T09:39:08.301Z,16.20
2023-02-18T09:41:39.920Z,18.00
2023-02-18T09:44:25.542Z,16.70
2023-02-18T09:47:12.334Z,15.50
2023-02-18T09:49:42.353Z,18.50
2023-02-18T09:52:18.303Z,16.50
2023-02-18T09:54:46.579Z,19.00
2023-02-18T09:57:27.436Z,17.20
2023-02-18T10:00:05.310Z,17.20
2023-02-18T10:03:06.292Z,16.40
2023-02-18T10:05:36.120Z,15.80
2023-02-18T10:08:07.406Z,16.20
2023-02-18T10:10:41.914Z,14.50
2023-02-18T10:13:15.932Z,15.20
2023-02-18T10:15:44.460Z,17.00
2023-02-18T10:18:52.629Z,18.50
2023-02-18T10:21:24.746Z,15.80
2023-02-18T10:24:25.277Z,15.80
2023-02-18T10:26:55.708Z,15.30
2023-02-18T10:29:25.420Z,14.60
2023-02-18T10:32:00.718Z,14.00
2023-02-18T10:34:44.499Z,18.50
2023-02-18T10:37:33.760Z,15.50
2023-02-18T10:40:23.948Z,16.60
2023-02-18T10:43:30.830Z,14.90
2023-02-18T10:46:22.832Z,15.10
2023-02-18T10:49:00.262Z,15.00
2023-02-18T10:51:30.066Z,13.20
2023-02-18T10:53:59.360Z,13.50
2023-02-18T10:56:40.756Z,13.40
2023-02-18T10:59:19.361Z,15.30
2023-02-18T11:01:55.069Z,14.20
2023-02-18T11:04:27.914Z,14.30
2023-02-18T11:06:56.381Z,12.90
2023-02-18T11:09:27.005Z,14.10
2023-02-18T11:12:08.675Z,14.90
2023-02-18T11:14:45.569Z,13.40
2023-02-18T11:17:21.794Z,13.30
2023-02-18T11:19:54.550Z,13.40
2023-02-18T11:22:29.652Z,12.60
2023-02-18T11:24:59.862Z,12.30
2023-02-18T11:27:45.125Z,13.80
2023-02-18T11:30:34.074Z,12.20
2023-02-18T11:33:22.245Z,13.40
2023-02-18T11:35:55.140Z,13.40
2023-02-18T11:38:24.636Z,12.60
2023-02-18T11:40:57.992Z,13.00
2023-02-18T11:43:28.465Z,14.60
2023-02-18T11:46:16.639Z,11.60
2023-02-18T11:48:45.710Z,10.40
2023-02-18T11:51:40.401Z,10.10
2023-02-18T11:54:26.900Z,9.40
2023-02-18T11:56:58.295Z,8.60
2023-02-18T11:59:26.594Z,11.00
2023-02-18T12:02:24.288Z,8.50
2023-02-18T12:05:05.413Z,8.70
2023-02-18T12:07:45.994Z,7.90
2023-02-18T12:10:16.255Z,7.90
2023-02-18T12:12:59.832Z,8.10
2023-02-18T12:15:38.097Z,8.00
2023-02-18T12:18:13.129Z,7.30
2023-02-18T12:21:13.665Z,7.70
2023-02-18T12:23:42.248Z,7.10
2023-02-18T12:26:29.874Z,7.00
2023-02-18T12:29:26.161Z,7.00
2023-02-18T12:32:09.976Z,7.50
2023-02-18T12:34:42.533Z,6.90
2023-02-18T12:37:49.723Z,7.00
2023-02-18T12:40:21.261Z,7.10
2023-02-18T12:42:57.057Z,6.70
2023-02-18T12:45:56.741Z,6.60
2023-02-18T12:48:45.686Z,7.40
2023-02-18T12:51:49.707Z,7.00
2023-02-18T12:54:30.688Z,7.70
2023-02-18T12:57:42.470Z,6.90
2023-02-18T13:00:32.453Z,6.50
2023-02-18T13:03:25.254Z,6.50
2023-02-18T13:06:12.530Z,6.20
2023-02-18T13:09:08.448Z,6.40
2023-02-18T13:11:36.927Z,6.50
2023-02-18T13:14:14.114Z,6.70
2023-02-18T13:16:46.438Z,6.90
2023-02-18T13:19:32.172Z,5.80
2023-02-18T13:22:03.314Z,5.40
2023-02-18T13:24:39.329Z,5.20
2023-02-18T13:27:36.073Z,5.90
2023-02-18T13:30:16.459Z,6.00
2023-02-18T13:32:51.494Z,5.90
2023-02-18T13:35:25.315Z,4.80
2023-02-18T13:38:03.312Z,5.10
2023-02-18T13:40:32.509Z,5.00
2023-02-18T13:43:34.273Z,4.60
2023-02-18T13:48:53.165Z,4.70
2023-02-18T13:51:39.256Z,4.90
2023-02-18T13:54:13.450Z,5.70
2023-02-18T13:56:55.046Z,5.40
2023-02-18T13:59:29.795Z,5.00
2023-02-18T14:02:20.012Z,6.00
2023-02-18T14:04:51.410Z,5.80
2023-02-18T14:07:44.158Z,5.50
2023-02-18T14:10:14.168Z,5.50
2023-02-18T14:12:44.516Z,5.50
2023-02-18T14:15:18.602Z,5.40
2023-02-18T14:18:10.899Z,5.30
2023-02-18T14:20:40.149Z,5.20
2023-02-18T14:23:18.659Z,5.60
2023-02-18T14:25:57.482Z,5.00
2023-02-18T14:28:35.386Z,5.50
2023-02-18T14:31:04.430Z,5.90
2023-02-18T14:33:35.318Z,5.50
2023-02-18T14:36:16.289Z,5.00
2023-02-18T14:39:05.966Z,5.80
2023-02-18T14:41:44.076Z,6.10
2023-02-18T14:44:30.493Z,6.70
2023-02-18T14:47:05.820Z,5.80
2023-02-18T14:49:38.905Z,5.80
2023-02-18T14:52:13.017Z,5.50
2023-02-18T14:54:42.523Z,5.40
2023-02-18T14:57:14.993Z,5.70
2023-02-18T14:59:49.521Z,5.50
2023-02-18T15:02:23.858Z,5.30
2023-02-18T15:04:52.219Z,5.40
2023-02-18T15:07:21.721Z,5.40
2023-02-18T15:09:54.325Z,5.20
2023-02-18T15:12:25.767Z,5.70
2023-02-18T15:17:24.801Z,6.40
2023-02-18T15:19:55.077Z,5.90
2023-02-18T15:22:27.755Z,5.60
2023-02-18T15:24:56.442Z,6.80
2023-02-18T15:27:31.682Z,6.00
2023-02-18T15:30:17.600Z,6.80
2023-02-18T15:32:50.174Z,6.60
2023-02-18T15:35:20.057Z,7.00
2023-02-18T15:37:53.386Z,6.50
2023-02-18T15:40:23.040Z,6.40
2023-02-18T15:42:52.918Z,6.40
2023-02-18T15:45:22.734Z,7.40
2023-02-18T15:47:53.526Z,8.20
2023-02-18T15:50:23.230Z,7.70
2023-02-18T15:52:52.220Z,7.50
2023-02-18T15:55:34.561Z,8.50
2023-02-18T15:58:04.878Z,8.40
2023-02-18T16:00:40.490Z,9.40
2023-02-18T16:03:28.141Z,8.40
2023-02-18T16:06:13.000Z,9.40
2023-02-18T16:08:41.475Z,8.60
2023-02-18T16:11:12.202Z,7.90
2023-02-18T16:13:47.237Z,8.60
2023-02-18T16:16:24.031Z,8.60
2023-02-18T16:18:53.618Z,9.30
2023-02-18T16:21:31.424Z,8.90
2023-02-18T16:24:01.583Z,8.90
2023-02-18T16:26:39.958Z,8.80
2023-02-18T16:29:34.460Z,8.50
2023-02-18T16:32:03.320Z,11.10
2023-02-18T16:34:31.914Z,11.10
2023-02-18T16:37:19.390Z,13.50
2023-02-18T16:39:49.764Z,12.30
2023-02-18T16:42:18.142Z,12.90
2023-02-18T16:44:48.356Z,12.90
2023-02-18T16:47:17.681Z,14.00
2023-02-18T16:49:47.377Z,11.90
2023-02-18T16:52:17.296Z,15.60
2023-02-18T16:54:48.159Z,14.50
2023-02-18T16:57:16.603Z,16.40
2023-02-18T16:59:45.344Z,15.10
2023-02-18T17:02:19.196Z,15.10
2023-02-18T17:04:47.984Z,15.40
2023-02-18T17:07:16.260Z,16.30
2023-02-18T17:09:44.641Z,14.20
2023-02-18T17:12:13.732Z,15.10
2023-02-18T17:14:42.213Z,14.50
2023-02-18T17:17:14.380Z,29.80
2023-02-18T17:19:42.758Z,24.20
2023-02-18T17:22:12.983Z,22.80
2023-02-18T17:24:41.375Z,19.80
2023-02-18T17:27:11.378Z,17.20
2023-02-18T17:29:39.892Z,26.80
2023-02-18T17:32:11.544Z,22.80
2023-02-18T17:34:41.319Z,18.90
2023-02-18T17:37:13.182Z,17.10
2023-02-18T17:39:41.867Z,18.40
2023-02-18T17:42:14.959Z,17.70
2023-02-18T17:44:45.178Z,21.80
2023-02-18T17:47:13.658Z,22.60
2023-02-18T17:49:42.585Z,20.20
2023-02-18T17:52:24.036Z,22.10
2023-02-18T17:54:52.513Z,20.20
2023-02-18T17:57:20.891Z,19.40
2023-02-18T17:59:49.372Z,21.70
2023-02-18T18:02:27.920Z,24.70
2023-02-18T18:04:56.264Z,24.80
2023-02-18T18:07:24.847Z,26.00
2023-02-18T18:09:55.298Z,26.80
2023-02-18T18:12:23.750Z,22.70
2023-02-18T18:14:53.021Z,25.10
2023-02-18T18:17:21.338Z,24.20
2023-02-18T18:19:49.808Z,23.90
2023-02-18T18:22:19.008Z,24.70
2023-02-18T18:24:47.485Z,28.70
2023-02-18T18:27:15.864Z,27.20
2023-02-18T18:29:44.242Z,23.10
2023-02-18T18:32:16.827Z,23.60
2023-02-18T18:34:49.049Z,25.30
2023-02-18T18:37:17.880Z,22.40
2023-02-18T18:39:46.268Z,46.00
2023-02-18T18:42:14.538Z,46.20
2023-02-18T18:44:43.426Z,39.30
2023-02-18T18:47:12.239Z,20.00
2023-02-18T18:49:40.694Z,19.00
2023-02-18T18:52:11.136Z,16.60
2023-02-18T18:54:41.670Z,17.70
2023-02-18T18:57:10.156Z,19.10
2023-02-18T18:59:44.250Z,19.60
2023-02-18T19:02:16.216Z,16.60
2023-02-18T19:04:44.619Z,24.00
2023-02-18T19:07:13.366Z,25.00
2023-02-18T19:09:41.950Z,22.00
2023-02-18T19:12:10.744Z,17.50
2023-02-18T19:14:39.221Z,15.80
2023-02-18T19:17:07.634Z,14.80
2023-02-18T19:19:36.079Z,16.30
2023-02-18T19:22:04.463Z,16.10
2023-02-18T19:24:33.647Z,14.80
2023-02-18T19:27:02.143Z,14.40
2023-02-18T19:29:30.612Z,15.60
2023-02-18T19:31:59.317Z,13.60
2023-02-18T19:34:28.285Z,14.10
2023-02-18T19:36:56.771Z,14.40
2023-02-18T19:39:26.272Z,13.00
2023-02-18T19:41:54.665Z,13.60
2023-02-18T19:44:26.517Z,13.90
2023-02-18T19:46:55.507Z,12.40
2023-02-18T19:49:26.343Z,14.20
2023-02-18T19:51:54.675Z,13.10
2023-02-18T19:54:22.902Z,12.20
2023-02-18T19:56:51.609Z,11.60
2023-02-18T19:59:19.855Z,12.20
2023-02-18T20:01:48.614Z,12.00
2023-02-18T20:04:17.129Z,12.10
2023-02-18T20:06:45.502Z,12.00
2023-02-18T20:09:14.086Z,12.50
2023-02-18T20:11:42.565Z,15.30
2023-02-18T20:14:10.952Z,13.10
2023-02-18T20:16:39.422Z,11.90
2023-02-18T20:19:08.620Z,11.50
2023-02-18T20:21:38.021Z,12.10
2023-02-18T20:24:10.096Z,12.40
2023-02-18T20:26:38.369Z,13.00
2023-02-18T20:29:06.945Z,12.10
2023-02-18T20:31:35.571Z,11.70
2023-02-18T20:34:04.032Z,12.30
2023-02-18T20:36:32.897Z,13.70
2023-02-18T20:39:15.411Z,13.00
2023-02-18T20:41:45.546Z,13.00
2023-02-18T20:44:15.973Z,13.20
2023-02-18T20:46:44.591Z,13.30
2023-02-18T20:49:15.181Z,12.80
2023-02-18T20:51:43.850Z,13.60
2023-02-18T20:54:15.917Z,12.50
2023-02-18T20:59:14.209Z,12.30
2023-02-18T21:01:43.443Z,11.70
2023-02-18T21:04:12.704Z,15.10
2023-02-18T21:06:41.193Z,12.10
2023-02-18T21:09:10.800Z,13.40
2023-02-18T21:11:40.321Z,12.10
2023-02-18T21:14:09.289Z,11.80
2023-02-18T21:16:40.663Z,12.00
2023-02-18T21:19:12.116Z,11.70
2023-02-18T21:21:40.462Z,11.50
2023-02-18T21:24:09.558Z,11.20
2023-02-18T21:26:38.446Z,10.30
2023-02-18T21:29:08.567Z,10.90
2023-02-18T21:31:41.454Z,11.00
2023-02-18T21:34:13.739Z,10.80
2023-02-18T21:36:43.650Z,9.90
2023-02-18T21:39:12.009Z,10.70
2023-02-18T21:41:42.233Z,10.60
2023-02-18T21:44:10.606Z,11.50
2023-02-18T21:46:39.437Z,10.80
2023-02-18T21:49:10.032Z,10.70
2023-02-18T21:51:57.564Z,11.70
2023-02-18T21:54:40.582Z,10.90
2023-02-18T21:57:22.161Z,10.00
2023-02-18T21:59:50.853Z,9.30
2023-02-18T22:02:21.760Z,9.40
2023-02-18T22:04:50.785Z,9.70
2023-02-18T22:07:21.930Z,9.50
2023-02-18T22:09:51.020Z,9.60
2023-02-18T22:12:21.867Z,8.80
2023-02-18T22:14:50.347Z,9.50
2023-02-18T22:17:19.541Z,9.60
2023-02-18T22:19:50.091Z,9.40
2023-02-18T22:22:18.756Z,8.80
2023-02-18T22:24:47.434Z,8.10
2023-02-18T22:27:15.922Z,8.50
2023-02-18T22:29:47.669Z,8.20
2023-02-18T22:32:16.467Z,8.30
2023-02-18T22:34:44.854Z,8.80
2023-02-18T22:37:13.342Z,9.00
2023-02-18T22:39:42.001Z,8.90
2023-02-18T22:42:10.281Z,8.50
2023-02-18T22:44:39.860Z,8.70
2023-02-18T22:47:08.158Z,8.70
2023-02-18T22:49:36.634Z,9.50
2023-02-18T22:52:07.580Z,9.10
2023-02-18T22:54:35.953Z,9.40
2023-02-18T22:57:04.464Z,8.90
2023-02-18T22:59:33.219Z,8.20
2023-02-18T23:02:01.704Z,8.90
2023-02-18T23:04:30.593Z,8.60
2023-02-18T23:06:58.877Z,9.20
2023-02-18T23:09:27.347Z,9.40
2023-02-18T23:11:57.669Z,10.10
2023-02-18T23:14:30.772Z,9.20
2023-02-18T23:17:15.424Z,9.80
2023-02-18T23:19:51.286Z,9.60
2023-02-18T23:22:32.465Z,13.70
2023-02-18T23:25:01.352Z,10.60
2023-02-18T23:27:30.437Z,13.50
2023-02-18T23:29:58.886Z,14.80
2023-02-18T23:32:29.146Z,14.50
2023-02-18T23:34:58.031Z,15.70
2023-02-18T23:37:45.882Z,14.30
2023-02-18T23:40:15.364Z,12.50
2023-02-18T23:42:43.660Z,11.70
2023-02-18T23:45:12.302Z,12.70
2023-02-18T23:47:40.613Z,12.00
2023-02-18T23:50:09.289Z,11.70
2023-02-18T23:52:38.793Z,10.90
2023-02-18T23:55:07.682Z,14.80
2023-02-18T23:57:35.988Z,13.90
